createdAt,value
2023-08-15T17:15:13.353Z,100899.42
2023-08-15T17:17:44.679Z,100895.10
2023-08-15T17:20:15.983Z,100896.94
2023-08-15T17:23:20.796Z,100899.67
2023-08-15T17:25:44.442Z,100899.90
2023-08-15T17:28:17.818Z,100900.67
2023-08-15T17:31:16.622Z,100904.50
2023-08-15T17:33:50.543Z,100907.41
2023-08-15T17:36:30.649Z,100908.85
2023-08-15T17:38:59.302Z,100910.59
2023-08-15T17:41:29.703Z,100908.98
2023-08-15T17:44:06.178Z,100910.36
2023-08-15T17:46:39.116Z,100906.54
2023-08-15T17:49:27.299Z,100910.61
2023-08-15T17:55:06.745Z,100910.90
2023-08-15T17:57:35.534Z,100905.34
2023-08-15T18:00:18.410Z,100908.85
2023-08-15T18:03:06.127Z,100910.33
2023-08-15T18:05:35.262Z,100916.16
2023-08-15T18:08:04.394Z,100917.13
2023-08-15T18:10:36.629Z,100916.29
2023-08-15T18:13:06.048Z,100916.14
2023-08-15T18:16:00.303Z,100918.70
2023-08-15T18:20:11.364Z,100919.40
2023-08-15T18:24:21.655Z,100920.85
2023-08-15T18:28:13.394Z,100918.95
2023-08-15T18:32:08.595Z,100923.70
2023-08-15T18:36:17.514Z,100923.29
2023-08-15T18:40:00.581Z,100927.91
2023-08-15T18:43:51.158Z,100929.77
2023-08-15T18:47:52.199Z,100937.34
2023-08-15T18:51:22.529Z,100931.61
2023-08-15T18:55:14.769Z,100933.75
2023-08-15T18:59:06.117Z,100930.42
2023-08-15T19:02:59.655Z,100931.58
2023-08-15T19:06:51.449Z,100934.66
2023-08-15T19:10:45.411Z,100937.59
2023-08-15T19:14:35.778Z,100941.83
2023-08-15T19:18:27.136Z,100941.56
2023-08-15T19:22:20.464Z,100943.03
2023-08-15T19:26:30.831Z,100935.41
2023-08-15T19:30:19.931Z,100929.55
2023-08-15T19:34:11.198Z,100933.71
2023-08-15T19:38:04.378Z,100936.51
2023-08-15T19:41:57.475Z,100935.52
2023-08-15T19:46:09.358Z,100937.90
2023-08-15T19:50:08.526Z,100938.05
2023-08-15T19:53:59.392Z,100940.71
2023-08-15T19:57:55.767Z,100939.00
2023-08-15T20:01:42.979Z,100939.44
2023-08-15T20:05:32.661Z,100940.04
2023-08-15T20:09:24.630Z,100942.33
2023-08-15T20:13:36.293Z,100946.27
2023-08-15T20:17:08.197Z,100950.29
2023-08-15T20:21:19.006Z,100946.86
2023-08-15T20:25:08.983Z,100950.38
2023-08-15T20:28:54.759Z,100954.44
2023-08-15T20:32:46.256Z,100952.77
2023-08-15T20:36:35.794Z,100946.89
2023-08-15T20:40:22.542Z,100950.48
2023-08-15T20:44:25.211Z,100947.56
2023-08-15T20:48:13.331Z,100947.67
2023-08-15T20:52:01.605Z,100950.33
2023-08-15T20:55:51.647Z,100948.13
2023-08-15T20:59:45.407Z,100949.26
